Cactus, TX (79013)

9:00 AM CDT on July 28, 2015 (GMT -0500)
Moore County | | Change Station
CLOSE
Current Station
Airport
Location: Dumas,
Elevation: 3704 ft
Nearby Weather Stations

Elev 3704 ft 35.86 °N, 102.01 °W | Updated 5 minutes ago

Clear
Clear
78 °F
Feels Like 78 °F
N
14
Wind Variable Wind from WSW
Gusts 20 mph

Today
High -- | Low -- °F
--% Chance of Precip.
Yesterday
High -- | Low -- °F
Precip. -- in
6:51 AM 8:56 PM
Waxing Gibbous, 89% visible
Pressure 30.01 in
Visibility 10.0 miles
Clouds Clear
Dew Point 59 °F
Humidity 52%
Rainfall 0.00 in
Snow Depth Not available.
UV 2 out of 12
Pollen 4.90 out of 12
Air Quality Not available.
Flu Activity Not available.
METAR KDUX 281355Z AUTO 24012G17KT 10SM CLR 26/15 A3001 RMK AO2 T02550151

More Conditions Fewer Conditions

Pressure 30.01 in
Visibility 10.0 miles
Clouds Clear
Dew Point 59 °F
Humidity 52%
Rainfall 0.00 in
Snow Depth Not available.
UV 2 out of 12
Pollen 4.90 out of 12
Air Quality Not available.
Flu Activity Not available.
METAR KDUX 281355Z AUTO 24012G17KT 10SM CLR 26/15 A3001 RMK AO2 T02550151

More Conditions Fewer Conditions

10-Day Weather Forecast

×

Almanac

Astronomy

Jul. 28, 2015 Rise Set
Actual Time
Civil Twilight
Nautical Twilight
Astronomical Twilight
Moon
Length of Visible Light
Length of Day
Tomorrow will be .
, % of the Moon is Illuminated

Today's Extremes

State Highs State Lows

Community

WunderPhotos

Upload Photos

1,841,834 photos uploaded!

WunderBlogs® & News

Nearby

Air Quality

  Air Quality AQ Index Pollutant
Not available.

Snow Depth

Station Depth Elevation

Earthquake Activity

City Distance Mag. Time & Date
Minimum magnitude displayed is 2.5.

Coastal Water Temperatures

Place Temperature

Stations

Nearby Weather Stations

Station Location Temp. Windchill Dew Point Humidity Wind Precip. Elev Updated Type